sensor_id;sensor_type;location;lat;lon;timestamp;P1;durP1;ratioP1;P2;durP2;ratioP2
51226;SDS011;42714;48.260;10.980;2023-05-07T00:03:32;9.8;;;5.8;;
51226;SDS011;42714;48.260;10.980;2023-05-07T00:08:32;10.7;;;6.4;;
51226;SDS011;42714;48.260;10.980;2023-05-07T00:13:32;13.1;;;6.9;;
51226;SDS011;42714;48.260;10.980;2023-05-07T00:18:32;13.7;;;6.2;;
51226;SDS011;42714;48.260;10.980;2023-05-07T00:23:32;12.1;;;7.4;;
51226;SDS011;42714;48.260;10.980;2023-05-07T00:28:32;13.2;;;7.3;;
51226;SDS011;42714;48.260;10.980;2023-05-07T00:33:32;11.8;;;6.9;;
51226;SDS011;42714;48.260;10.980;2023-05-07T00:38:32;10.5;;;6.2;;
51226;SDS011;42714;48.260;10.980;2023-05-07T00:43:32;12.1;;;6.7;;
51226;SDS011;42714;48.260;10.980;2023-05-07T00:48:32;15.3;;;6.9;;
51226;SDS011;42714;48.260;10.980;2023-05-07T00:53:32;13.6;;;6.5;;
51226;SDS011;42714;48.260;10.980;2023-05-07T00:58:32;13.4;;;6.0;;
51226;SDS011;42714;48.260;10.980;2023-05-07T01:03:32;14.2;;;6.8;;
51226;SDS011;42714;48.260;10.980;2023-05-07T01:08:32;11.7;;;7.2;;
51226;SDS011;42714;48.260;10.980;2023-05-07T01:13:32;11.6;;;7.2;;
51226;SDS011;42714;48.260;10.980;2023-05-07T01:18:32;14.7;;;7.3;;
51226;SDS011;42714;48.260;10.980;2023-05-07T01:23:32;13.4;;;6.9;;
51226;SDS011;42714;48.260;10.980;2023-05-07T01:28:32;11.2;;;6.5;;
51226;SDS011;42714;48.260;10.980;2023-05-07T01:33:33;11.9;;;7.2;;
51226;SDS011;42714;48.260;10.980;2023-05-07T01:38:32;14.1;;;7.3;;
51226;SDS011;42714;48.260;10.980;2023-05-07T01:43:32;12.9;;;6.8;;
51226;SDS011;42714;48.260;10.980;2023-05-07T01:48:32;13.4;;;7.5;;
51226;SDS011;42714;48.260;10.980;2023-05-07T01:53:36;13.9;;;8.1;;
51226;SDS011;42714;48.260;10.980;2023-05-07T01:58:32;14.6;;;8.1;;
51226;SDS011;42714;48.260;10.980;2023-05-07T02:03:32;11.2;;;7.0;;
51226;SDS011;42714;48.260;10.980;2023-05-07T02:08:32;15.4;;;7.5;;
51226;SDS011;42714;48.260;10.980;2023-05-07T02:13:33;13.1;;;7.7;;
51226;SDS011;42714;48.260;10.980;2023-05-07T02:18:32;13.7;;;7.2;;
51226;SDS011;42714;48.260;10.980;2023-05-07T02:23:32;12.3;;;7.0;;
51226;SDS011;42714;48.260;10.980;2023-05-07T02:28:32;11.8;;;7.5;;
51226;SDS011;42714;48.260;10.980;2023-05-07T02:33:32;11.4;;;7.2;;
51226;SDS011;42714;48.260;10.980;2023-05-07T02:38:32;12.4;;;7.0;;
51226;SDS011;42714;48.260;10.980;2023-05-07T02:43:32;14.1;;;7.7;;
51226;SDS011;42714;48.260;10.980;2023-05-07T02:48:32;12.7;;;7.5;;
51226;SDS011;42714;48.260;10.980;2023-05-07T02:53:32;14.8;;;8.1;;
51226;SDS011;42714;48.260;10.980;2023-05-07T02:58:32;12.4;;;7.9;;
51226;SDS011;42714;48.260;10.980;2023-05-07T03:03:32;13.1;;;7.9;;
51226;SDS011;42714;48.260;10.980;2023-05-07T03:08:32;16.4;;;8.7;;
51226;SDS011;42714;48.260;10.980;2023-05-07T03:13:32;13.4;;;8.7;;
51226;SDS011;42714;48.260;10.980;2023-05-07T03:18:32;14.2;;;8.2;;
51226;SDS011;42714;48.260;10.980;2023-05-07T03:23:32;12.4;;;8.8;;
51226;SDS011;42714;48.260;10.980;2023-05-07T03:28:32;13.6;;;8.9;;
51226;SDS011;42714;48.260;10.980;2023-05-07T03:33:35;13.1;;;8.5;;
51226;SDS011;42714;48.260;10.980;2023-05-07T03:38:32;16.8;;;8.9;;
51226;SDS011;42714;48.260;10.980;2023-05-07T03:43:32;17.2;;;9.9;;
51226;SDS011;42714;48.260;10.980;2023-05-07T03:48:32;14.8;;;9.3;;
51226;SDS011;42714;48.260;10.980;2023-05-07T03:53:32;17.4;;;9.5;;
51226;SDS011;42714;48.260;10.980;2023-05-07T03:58:32;19.0;;;10.5;;
51226;SDS011;42714;48.260;10.980;2023-05-07T04:03:32;18.4;;;9.8;;
51226;SDS011;42714;48.260;10.980;2023-05-07T04:08:32;20.3;;;11.3;;
51226;SDS011;42714;48.260;10.980;2023-05-07T04:13:32;20.9;;;10.0;;
51226;SDS011;42714;48.260;10.980;2023-05-07T04:18:32;17.6;;;10.9;;
51226;SDS011;42714;48.260;10.980;2023-05-07T04:23:32;19.8;;;10.8;;
51226;SDS011;42714;48.260;10.980;2023-05-07T04:28:32;17.3;;;10.6;;
51226;SDS011;42714;48.260;10.980;2023-05-07T04:33:32;22.2;;;10.0;;
51226;SDS011;42714;48.260;10.980;2023-05-07T04:38:32;16.2;;;9.3;;
51226;SDS011;42714;48.260;10.980;2023-05-07T04:43:32;14.8;;;9.2;;
51226;SDS011;42714;48.260;10.980;2023-05-07T04:48:32;16.0;;;8.0;;
51226;SDS011;42714;48.260;10.980;2023-05-07T04:53:32;11.6;;;7.9;;
51226;SDS011;42714;48.260;10.980;2023-05-07T04:58:32;13.1;;;7.1;;
51226;SDS011;42714;48.260;10.980;2023-05-07T05:03:32;11.2;;;7.0;;
51226;SDS011;42714;48.260;10.980;2023-05-07T05:08:32;14.4;;;7.2;;
51226;SDS011;42714;48.260;10.980;2023-05-07T05:13:32;13.6;;;6.7;;
51226;SDS011;42714;48.260;10.980;2023-05-07T05:18:32;11.4;;;6.1;;
51226;SDS011;42714;48.260;10.980;2023-05-07T05:23:32;11.4;;;6.5;;
51226;SDS011;42714;48.260;10.980;2023-05-07T05:28:32;11.8;;;6.2;;
51226;SDS011;42714;48.260;10.980;2023-05-07T05:33:32;11.9;;;6.1;;
51226;SDS011;42714;48.260;10.980;2023-05-07T05:38:32;9.8;;;6.9;;
51226;SDS011;42714;48.260;10.980;2023-05-07T05:43:32;10.0;;;6.3;;
51226;SDS011;42714;48.260;10.980;2023-05-07T05:48:32;9.8;;;6.8;;
51226;SDS011;42714;48.260;10.980;2023-05-07T05:53:32;11.4;;;6.7;;
51226;SDS011;42714;48.260;10.980;2023-05-07T05:58:32;12.1;;;7.1;;
51226;SDS011;42714;48.260;10.980;2023-05-07T06:03:32;10.8;;;6.6;;
51226;SDS011;42714;48.260;10.980;2023-05-07T06:08:32;11.2;;;7.1;;
51226;SDS011;42714;48.260;10.980;2023-05-07T06:13:32;11.9;;;6.3;;
51226;SDS011;42714;48.260;10.980;2023-05-07T06:18:32;13.2;;;5.2;;
51226;SDS011;42714;48.260;10.980;2023-05-07T06:23:32;11.7;;;5.1;;
51226;SDS011;42714;48.260;10.980;2023-05-07T06:28:32;11.8;;;5.9;;
51226;SDS011;42714;48.260;10.980;2023-05-07T06:33:32;9.8;;;5.2;;
51226;SDS011;42714;48.260;10.980;2023-05-07T06:38:32;11.1;;;5.1;;
51226;SDS011;42714;48.260;10.980;2023-05-07T06:43:32;7.9;;;4.6;;
51226;SDS011;42714;48.260;10.980;2023-05-07T06:48:32;8.5;;;4.7;;
51226;SDS011;42714;48.260;10.980;2023-05-07T06:53:32;7.0;;;4.5;;
51226;SDS011;42714;48.260;10.980;2023-05-07T06:58:32;8.7;;;4.0;;
51226;SDS011;42714;48.260;10.980;2023-05-07T07:03:32;7.9;;;3.6;;
51226;SDS011;42714;48.260;10.980;2023-05-07T07:08:32;9.1;;;3.6;;
51226;SDS011;42714;48.260;10.980;2023-05-07T07:13:32;9.1;;;3.4;;
51226;SDS011;42714;48.260;10.980;2023-05-07T07:18:32;6.6;;;3.2;;
51226;SDS011;42714;48.260;10.980;2023-05-07T07:23:32;5.8;;;3.0;;
51226;SDS011;42714;48.260;10.980;2023-05-07T07:28:32;7.8;;;2.7;;
51226;SDS011;42714;48.260;10.980;2023-05-07T07:33:32;9.4;;;2.4;;
51226;SDS011;42714;48.260;10.980;2023-05-07T07:38:32;5.2;;;2.4;;
51226;SDS011;42714;48.260;10.980;2023-05-07T07:43:32;5.7;;;2.1;;
51226;SDS011;42714;48.260;10.980;2023-05-07T07:48:33;6.3;;;2.1;;
51226;SDS011;42714;48.260;10.980;2023-05-07T07:53:32;4.7;;;2.2;;
51226;SDS011;42714;48.260;10.980;2023-05-07T07:58:32;6.0;;;1.9;;
51226;SDS011;42714;48.260;10.980;2023-05-07T08:03:32;6.5;;;2.7;;
51226;SDS011;42714;48.260;10.980;2023-05-07T08:08:32;5.5;;;3.0;;
51226;SDS011;42714;48.260;10.980;2023-05-07T08:13:32;5.5;;;3.0;;
51226;SDS011;42714;48.260;10.980;2023-05-07T08:18:32;7.5;;;2.7;;
51226;SDS011;42714;48.260;10.980;2023-05-07T08:23:32;5.6;;;2.7;;
51226;SDS011;42714;48.260;10.980;2023-05-07T08:28:32;5.3;;;2.1;;
51226;SDS011;42714;48.260;10.980;2023-05-07T08:33:32;6.0;;;2.4;;
51226;SDS011;42714;48.260;10.980;2023-05-07T08:38:32;5.7;;;2.1;;
51226;SDS011;42714;48.260;10.980;2023-05-07T08:43:32;5.0;;;2.5;;
51226;SDS011;42714;48.260;10.980;2023-05-07T08:48:32;5.3;;;2.6;;
51226;SDS011;42714;48.260;10.980;2023-05-07T08:53:32;6.7;;;2.9;;
51226;SDS011;42714;48.260;10.980;2023-05-07T08:58:32;5.8;;;2.3;;
51226;SDS011;42714;48.260;10.980;2023-05-07T09:03:32;7.5;;;3.4;;
51226;SDS011;42714;48.260;10.980;2023-05-07T09:08:33;7.4;;;2.3;;
51226;SDS011;42714;48.260;10.980;2023-05-07T09:13:32;4.9;;;2.1;;
51226;SDS011;42714;48.260;10.980;2023-05-07T09:18:32;5.4;;;2.5;;
51226;SDS011;42714;48.260;10.980;2023-05-07T09:23:32;4.6;;;2.5;;
51226;SDS011;42714;48.260;10.980;2023-05-07T09:28:32;4.7;;;2.1;;
51226;SDS011;42714;48.260;10.980;2023-05-07T09:33:32;6.5;;;1.8;;
51226;SDS011;42714;48.260;10.980;2023-05-07T09:38:33;17.9;;;10.6;;
51226;SDS011;42714;48.260;10.980;2023-05-07T09:43:33;4.5;;;1.6;;
51226;SDS011;42714;48.260;10.980;2023-05-07T09:48:36;5.1;;;1.8;;
51226;SDS011;42714;48.260;10.980;2023-05-07T09:53:33;3.8;;;1.6;;
51226;SDS011;42714;48.260;10.980;2023-05-07T09:58:33;2.8;;;1.5;;
51226;SDS011;42714;48.260;10.980;2023-05-07T10:03:33;4.1;;;1.1;;
51226;SDS011;42714;48.260;10.980;2023-05-07T10:08:32;4.8;;;1.2;;
51226;SDS011;42714;48.260;10.980;2023-05-07T10:13:33;3.3;;;0.9;;
51226;SDS011;42714;48.260;10.980;2023-05-07T10:18:32;3.2;;;0.6;;
51226;SDS011;42714;48.260;10.980;2023-05-07T10:23:32;4.0;;;0.9;;
51226;SDS011;42714;48.260;10.980;2023-05-07T10:28:34;4.9;;;1.2;;
51226;SDS011;42714;48.260;10.980;2023-05-07T10:33:32;2.4;;;1.0;;
51226;SDS011;42714;48.260;10.980;2023-05-07T10:38:32;4.8;;;0.8;;
51226;SDS011;42714;48.260;10.980;2023-05-07T10:48:32;3.4;;;0.9;;
51226;SDS011;42714;48.260;10.980;2023-05-07T10:53:32;3.5;;;1.0;;
51226;SDS011;42714;48.260;10.980;2023-05-07T10:58:32;3.6;;;0.9;;
51226;SDS011;42714;48.260;10.980;2023-05-07T11:03:32;3.9;;;0.9;;
51226;SDS011;42714;48.260;10.980;2023-05-07T11:08:52;4.4;;;1.0;;
51226;SDS011;42714;48.260;10.980;2023-05-07T11:18:54;4.3;;;0.8;;
51226;SDS011;42714;48.260;10.980;2023-05-07T11:33:33;4.0;;;0.9;;
51226;SDS011;42714;48.260;10.980;2023-05-07T11:38:36;3.9;;;0.9;;
51226;SDS011;42714;48.260;10.980;2023-05-07T11:43:32;3.8;;;0.6;;
51226;SDS011;42714;48.260;10.980;2023-05-07T11:48:32;2.5;;;0.9;;
51226;SDS011;42714;48.260;10.980;2023-05-07T11:58:32;3.5;;;0.6;;
51226;SDS011;42714;48.260;10.980;2023-05-07T12:03:32;3.2;;;0.9;;
51226;SDS011;42714;48.260;10.980;2023-05-07T12:08:32;6.7;;;0.9;;
51226;SDS011;42714;48.260;10.980;2023-05-07T12:13:32;4.5;;;1.0;;
51226;SDS011;42714;48.260;10.980;2023-05-07T12:18:33;3.3;;;0.7;;
51226;SDS011;42714;48.260;10.980;2023-05-07T12:23:33;4.3;;;1.0;;
51226;SDS011;42714;48.260;10.980;2023-05-07T12:28:35;3.5;;;1.0;;
51226;SDS011;42714;48.260;10.980;2023-05-07T12:33:33;3.9;;;0.9;;
51226;SDS011;42714;48.260;10.980;2023-05-07T12:38:36;2.4;;;0.8;;
51226;SDS011;42714;48.260;10.980;2023-05-07T12:43:32;4.7;;;0.9;;
51226;SDS011;42714;48.260;10.980;2023-05-07T12:48:32;3.3;;;0.9;;
51226;SDS011;42714;48.260;10.980;2023-05-07T12:53:32;3.2;;;0.9;;
51226;SDS011;42714;48.260;10.980;2023-05-07T12:58:33;3.8;;;1.1;;
51226;SDS011;42714;48.260;10.980;2023-05-07T13:03:33;2.7;;;0.8;;
51226;SDS011;42714;48.260;10.980;2023-05-07T13:08:33;5.2;;;1.0;;
51226;SDS011;42714;48.260;10.980;2023-05-07T13:13:34;3.0;;;0.9;;
51226;SDS011;42714;48.260;10.980;2023-05-07T13:18:33;3.7;;;1.0;;
51226;SDS011;42714;48.260;10.980;2023-05-07T13:23:33;2.7;;;0.8;;
51226;SDS011;42714;48.260;10.980;2023-05-07T13:28:32;12.2;;;1.1;;
51226;SDS011;42714;48.260;10.980;2023-05-07T13:33:32;3.4;;;0.9;;
51226;SDS011;42714;48.260;10.980;2023-05-07T13:38:32;2.3;;;0.8;;
51226;SDS011;42714;48.260;10.980;2023-05-07T13:43:32;3.6;;;1.3;;
51226;SDS011;42714;48.260;10.980;2023-05-07T13:48:32;5.5;;;1.1;;
51226;SDS011;42714;48.260;10.980;2023-05-07T13:53:32;4.8;;;1.2;;
51226;SDS011;42714;48.260;10.980;2023-05-07T13:58:32;4.3;;;0.9;;
51226;SDS011;42714;48.260;10.980;2023-05-07T14:03:32;2.7;;;0.9;;
51226;SDS011;42714;48.260;10.980;2023-05-07T14:08:32;4.6;;;1.5;;
51226;SDS011;42714;48.260;10.980;2023-05-07T14:13:32;4.2;;;1.6;;
51226;SDS011;42714;48.260;10.980;2023-05-07T14:18:33;4.1;;;1.6;;
51226;SDS011;42714;48.260;10.980;2023-05-07T14:23:32;5.7;;;1.8;;
51226;SDS011;42714;48.260;10.980;2023-05-07T14:28:32;5.3;;;1.7;;
51226;SDS011;42714;48.260;10.980;2023-05-07T14:33:33;3.5;;;1.7;;
51226;SDS011;42714;48.260;10.980;2023-05-07T14:38:33;4.2;;;1.8;;
51226;SDS011;42714;48.260;10.980;2023-05-07T14:43:33;5.0;;;1.6;;
51226;SDS011;42714;48.260;10.980;2023-05-07T14:48:33;5.8;;;1.9;;
51226;SDS011;42714;48.260;10.980;2023-05-07T14:53:33;4.5;;;1.6;;
51226;SDS011;42714;48.260;10.980;2023-05-07T14:58:33;5.5;;;1.9;;
51226;SDS011;42714;48.260;10.980;2023-05-07T15:03:33;3.8;;;1.6;;
51226;SDS011;42714;48.260;10.980;2023-05-07T15:08:33;4.6;;;1.6;;
51226;SDS011;42714;48.260;10.980;2023-05-07T15:13:33;4.8;;;1.7;;
51226;SDS011;42714;48.260;10.980;2023-05-07T15:18:33;5.9;;;1.3;;
51226;SDS011;42714;48.260;10.980;2023-05-07T15:23:33;2.6;;;1.4;;
51226;SDS011;42714;48.260;10.980;2023-05-07T15:28:33;6.9;;;1.7;;
51226;SDS011;42714;48.260;10.980;2023-05-07T15:33:33;5.5;;;1.4;;
51226;SDS011;42714;48.260;10.980;2023-05-07T15:38:33;4.8;;;1.4;;
51226;SDS011;42714;48.260;10.980;2023-05-07T15:43:33;4.0;;;1.3;;
51226;SDS011;42714;48.260;10.980;2023-05-07T15:48:33;4.8;;;1.3;;
51226;SDS011;42714;48.260;10.980;2023-05-07T15:53:33;4.2;;;1.2;;
51226;SDS011;42714;48.260;10.980;2023-05-07T15:58:33;4.7;;;1.2;;
51226;SDS011;42714;48.260;10.980;2023-05-07T16:03:33;3.9;;;1.2;;
51226;SDS011;42714;48.260;10.980;2023-05-07T16:08:33;3.8;;;1.2;;
51226;SDS011;42714;48.260;10.980;2023-05-07T16:13:33;4.6;;;1.2;;
51226;SDS011;42714;48.260;10.980;2023-05-07T16:18:33;5.1;;;1.2;;
51226;SDS011;42714;48.260;10.980;2023-05-07T16:23:33;5.4;;;0.9;;
51226;SDS011;42714;48.260;10.980;2023-05-07T16:28:33;4.8;;;1.1;;
51226;SDS011;42714;48.260;10.980;2023-05-07T16:33:33;6.2;;;2.6;;
51226;SDS011;42714;48.260;10.980;2023-05-07T16:38:33;4.7;;;1.1;;
51226;SDS011;42714;48.260;10.980;2023-05-07T16:43:33;3.3;;;1.0;;
51226;SDS011;42714;48.260;10.980;2023-05-07T16:48:33;4.3;;;1.3;;
51226;SDS011;42714;48.260;10.980;2023-05-07T16:53:33;3.8;;;1.1;;
51226;SDS011;42714;48.260;10.980;2023-05-07T16:58:33;3.0;;;1.1;;
51226;SDS011;42714;48.260;10.980;2023-05-07T17:03:33;3.4;;;1.1;;
51226;SDS011;42714;48.260;10.980;2023-05-07T17:08:33;3.8;;;1.2;;
51226;SDS011;42714;48.260;10.980;2023-05-07T17:13:33;3.3;;;1.1;;
51226;SDS011;42714;48.260;10.980;2023-05-07T17:18:33;3.9;;;1.4;;
51226;SDS011;42714;48.260;10.980;2023-05-07T17:23:33;3.6;;;1.3;;
51226;SDS011;42714;48.260;10.980;2023-05-07T17:28:33;5.3;;;1.4;;
51226;SDS011;42714;48.260;10.980;2023-05-07T17:33:33;4.9;;;1.4;;
51226;SDS011;42714;48.260;10.980;2023-05-07T17:38:33;3.4;;;1.3;;
51226;SDS011;42714;48.260;10.980;2023-05-07T17:43:33;4.6;;;1.6;;
51226;SDS011;42714;48.260;10.980;2023-05-07T17:48:33;4.9;;;1.6;;
51226;SDS011;42714;48.260;10.980;2023-05-07T17:53:33;3.3;;;1.3;;
51226;SDS011;42714;48.260;10.980;2023-05-07T17:58:33;4.7;;;1.5;;
51226;SDS011;42714;48.260;10.980;2023-05-07T18:03:33;3.0;;;1.2;;
51226;SDS011;42714;48.260;10.980;2023-05-07T18:08:33;2.5;;;1.2;;
51226;SDS011;42714;48.260;10.980;2023-05-07T18:13:33;4.5;;;1.5;;
51226;SDS011;42714;48.260;10.980;2023-05-07T18:18:33;3.4;;;1.6;;
51226;SDS011;42714;48.260;10.980;2023-05-07T18:23:33;6.1;;;1.5;;
51226;SDS011;42714;48.260;10.980;2023-05-07T18:28:33;6.2;;;1.7;;
51226;SDS011;42714;48.260;10.980;2023-05-07T18:33:33;5.3;;;1.6;;
51226;SDS011;42714;48.260;10.980;2023-05-07T18:38:33;7.7;;;1.4;;
51226;SDS011;42714;48.260;10.980;2023-05-07T18:43:33;4.5;;;1.4;;
51226;SDS011;42714;48.260;10.980;2023-05-07T18:48:33;3.3;;;1.6;;
51226;SDS011;42714;48.260;10.980;2023-05-07T18:53:33;5.0;;;1.8;;
51226;SDS011;42714;48.260;10.980;2023-05-07T18:58:33;4.8;;;1.7;;
51226;SDS011;42714;48.260;10.980;2023-05-07T19:03:33;2.7;;;1.3;;
51226;SDS011;42714;48.260;10.980;2023-05-07T19:08:33;6.2;;;1.6;;
51226;SDS011;42714;48.260;10.980;2023-05-07T19:13:33;7.7;;;1.9;;
51226;SDS011;42714;48.260;10.980;2023-05-07T19:18:33;9.9;;;2.4;;
51226;SDS011;42714;48.260;10.980;2023-05-07T19:23:33;4.8;;;2.2;;
51226;SDS011;42714;48.260;10.980;2023-05-07T19:28:33;6.1;;;2.1;;
51226;SDS011;42714;48.260;10.980;2023-05-07T19:33:33;4.8;;;1.9;;
51226;SDS011;42714;48.260;10.980;2023-05-07T19:38:33;9.1;;;2.2;;
51226;SDS011;42714;48.260;10.980;2023-05-07T19:43:33;5.1;;;1.8;;
51226;SDS011;42714;48.260;10.980;2023-05-07T19:48:33;4.6;;;2.1;;
51226;SDS011;42714;48.260;10.980;2023-05-07T19:53:33;5.4;;;1.9;;
51226;SDS011;42714;48.260;10.980;2023-05-07T19:58:33;7.8;;;2.0;;
51226;SDS011;42714;48.260;10.980;2023-05-07T20:03:33;9.6;;;3.5;;
51226;SDS011;42714;48.260;10.980;2023-05-07T20:08:33;8.4;;;2.8;;
51226;SDS011;42714;48.260;10.980;2023-05-07T20:13:33;6.3;;;2.9;;
51226;SDS011;42714;48.260;10.980;2023-05-07T20:18:33;8.6;;;3.2;;
51226;SDS011;42714;48.260;10.980;2023-05-07T20:23:33;7.7;;;3.4;;
51226;SDS011;42714;48.260;10.980;2023-05-07T20:28:33;8.1;;;3.4;;
51226;SDS011;42714;48.260;10.980;2023-05-07T20:33:33;9.3;;;3.3;;
51226;SDS011;42714;48.260;10.980;2023-05-07T20:38:33;6.8;;;3.2;;
51226;SDS011;42714;48.260;10.980;2023-05-07T20:43:34;7.8;;;3.2;;
51226;SDS011;42714;48.260;10.980;2023-05-07T20:48:33;6.8;;;2.7;;
51226;SDS011;42714;48.260;10.980;2023-05-07T20:53:33;4.8;;;2.7;;
51226;SDS011;42714;48.260;10.980;2023-05-07T20:58:33;4.0;;;2.0;;
51226;SDS011;42714;48.260;10.980;2023-05-07T21:03:33;5.2;;;2.4;;
51226;SDS011;42714;48.260;10.980;2023-05-07T21:08:33;7.6;;;2.2;;
51226;SDS011;42714;48.260;10.980;2023-05-07T21:13:33;8.1;;;2.5;;
51226;SDS011;42714;48.260;10.980;2023-05-07T21:18:33;6.7;;;2.5;;
51226;SDS011;42714;48.260;10.980;2023-05-07T21:23:33;9.6;;;2.4;;
51226;SDS011;42714;48.260;10.980;2023-05-07T21:28:33;4.8;;;1.8;;
51226;SDS011;42714;48.260;10.980;2023-05-07T21:33:33;4.0;;;1.9;;
51226;SDS011;42714;48.260;10.980;2023-05-07T21:38:33;5.9;;;1.8;;
51226;SDS011;42714;48.260;10.980;2023-05-07T21:43:33;3.3;;;1.5;;
51226;SDS011;42714;48.260;10.980;2023-05-07T21:48:33;4.4;;;1.5;;
51226;SDS011;42714;48.260;10.980;2023-05-07T21:53:33;6.6;;;1.6;;
51226;SDS011;42714;48.260;10.980;2023-05-07T21:58:33;3.4;;;1.5;;
51226;SDS011;42714;48.260;10.980;2023-05-07T22:03:33;4.7;;;2.0;;
51226;SDS011;42714;48.260;10.980;2023-05-07T22:08:33;6.2;;;2.4;;
51226;SDS011;42714;48.260;10.980;2023-05-07T22:13:33;5.1;;;2.4;;
51226;SDS011;42714;48.260;10.980;2023-05-07T22:18:33;6.2;;;2.5;;
51226;SDS011;42714;48.260;10.980;2023-05-07T22:23:33;6.2;;;2.1;;
51226;SDS011;42714;48.260;10.980;2023-05-07T22:28:33;5.7;;;2.5;;
51226;SDS011;42714;48.260;10.980;2023-05-07T22:33:33;5.2;;;2.0;;
51226;SDS011;42714;48.260;10.980;2023-05-07T22:38:33;4.6;;;2.1;;
51226;SDS011;42714;48.260;10.980;2023-05-07T22:43:33;4.9;;;2.3;;
51226;SDS011;42714;48.260;10.980;2023-05-07T22:48:33;6.4;;;2.4;;
51226;SDS011;42714;48.260;10.980;2023-05-07T22:53:33;6.0;;;2.6;;
51226;SDS011;42714;48.260;10.980;2023-05-07T22:58:33;8.4;;;3.8;;
51226;SDS011;42714;48.260;10.980;2023-05-07T23:03:33;4.6;;;2.9;;
51226;SDS011;42714;48.260;10.980;2023-05-07T23:08:33;6.5;;;3.3;;
51226;SDS011;42714;48.260;10.980;2023-05-07T23:13:33;5.1;;;3.4;;
51226;SDS011;42714;48.260;10.980;2023-05-07T23:18:33;7.4;;;4.0;;
51226;SDS011;42714;48.260;10.980;2023-05-07T23:23:33;8.8;;;4.0;;
51226;SDS011;42714;48.260;10.980;2023-05-07T23:28:33;5.9;;;3.6;;
51226;SDS011;42714;48.260;10.980;2023-05-07T23:33:33;5.8;;;3.5;;
51226;SDS011;42714;48.260;10.980;2023-05-07T23:38:33;5.0;;;3.1;;
51226;SDS011;42714;48.260;10.980;2023-05-07T23:43:33;8.4;;;3.2;;
51226;SDS011;42714;48.260;10.980;2023-05-07T23:48:33;5.8;;;3.5;;
51226;SDS011;42714;48.260;10.980;2023-05-07T23:53:33;6.4;;;3.2;;
51226;SDS011;42714;48.260;10.980;2023-05-07T23:58:33;8.2;;;3.6;;
